Time;durP1;ratioP1;P1;durP2;ratioP2;P2;SDS_P1;SDS_P2;PMS_P1;PMS_P2;Temp;Humidity;BMP_temperature;BMP_pressure;BME280_temperature;BME280_humidity;BME280_pressure;Samples;Min_cycle;Max_cycle;Signal;HPM_P1;HPM_P2
2021/03/09 05:01:22;;;;;;;;;;;1.10;99.90;;;;;;5611579;22;19932;-62
2021/03/09 05:03:48;;;;;;;;;;;1.10;99.90;;;;;;5054726;28;19924;-63
2021/03/09 05:06:14;;;;;;;;;;;1.10;99.90;;;;;;5055343;28;19932;-63
2021/03/09 05:08:40;;;;;;;;;;;1.10;99.90;;;;;;5056056;28;20393;-67
2021/03/09 05:11:07;;;;;;;;;;;1.20;99.90;;;;;;5068062;22;19924;-64
2021/03/09 05:13:33;;;;;;;;;;;1.20;99.90;;;;;;5054874;28;19932;-63
2021/03/09 05:15:59;;;;;;;;;;;1.10;99.90;;;;;;5054190;28;20459;-64
2021/03/09 05:18:26;;;;;;;;;;;1.10;99.90;;;;;;5054089;28;20329;-63
2021/03/09 05:20:52;;;;;;;;;;;1.10;99.90;;;;;;5054203;28;20279;-64
2021/03/09 05:23:18;;;;;;;;;;;1.10;99.90;;;;;;5054091;28;20375;-64
2021/03/09 05:25:44;;;;;;;;;;;1.10;99.90;;;;;;5054575;28;19925;-64
2021/03/09 05:28:10;;;;;;;;;;;1.10;99.90;;;;;;5054450;28;20268;-64
2021/03/09 05:30:36;;;;;;;;;;;1.10;99.90;;;;;;5054907;28;20002;-64
2021/03/09 05:33:02;;;;;;;;;;;1.10;99.90;;;;;;5054571;28;20440;-64
2021/03/09 05:35:29;;;;;;;;;;;1.10;99.90;;;;;;5054626;28;19947;-64
2021/03/09 05:37:55;;;;;;;;;;;1.20;99.90;;;;;;5054260;28;19925;-64
2021/03/09 05:40:21;;;;;;;;;;;1.10;99.90;;;;;;5053533;28;20304;-64
2021/03/09 05:42:48;;;;;;;;;;;1.10;99.90;;;;;;5053264;28;19925;-64
2021/03/09 05:45:14;;;;;;;;;;;1.10;99.90;;;;;;5053133;28;19924;-64
2021/03/09 05:47:40;;;;;;;;;;;1.10;99.90;;;;;;5053347;28;19925;-64
2021/03/09 05:50:07;;;;;;;;;;;1.20;99.90;;;;;;5052829;28;19955;-64
2021/03/09 05:52:35;;;;;;;;;;;1.20;99.90;;;;;;5053283;28;20272;-64
2021/03/09 05:55:01;;;;;;;;;;;1.20;99.90;;;;;;5053151;28;20334;-63
2021/03/09 05:57:27;;;;;;;;;;;1.20;99.90;;;;;;5056995;28;20299;-63
2021/03/09 05:59:55;;;;;;;;;;;1.20;99.90;;;;;;5057064;28;19948;-63
2021/03/09 06:02:21;;;;;;;;;;;1.30;99.90;;;;;;5057005;28;19925;-63
2021/03/09 06:04:47;;;;;;;;;;;1.30;99.90;;;;;;5060868;28;19982;-63
2021/03/09 06:07:16;;;;;;;;;;;1.30;99.90;;;;;;5073174;28;19924;-63
2021/03/09 06:09:43;;;;;;;;;;;1.30;99.90;;;;;;5071331;28;19936;-63
2021/03/09 06:12:10;;;;;;;;;;;1.30;99.90;;;;;;5067904;28;20379;-63
2021/03/09 06:14:38;;;;;;;;;;;1.30;99.90;;;;;;5057422;28;19982;-63
2021/03/09 06:17:04;;;;;;;;;;;1.30;99.90;;;;;;5056856;28;19947;-63
2021/03/09 06:19:40;;;;;;;;;;;1.30;99.90;;;;;;5056232;28;19924;-63
2021/03/09 06:22:06;;;;;;;;;;;1.30;99.90;;;;;;5056852;28;19932;-62
2021/03/09 06:24:32;;;;;;;;;;;1.40;99.90;;;;;;5056632;28;19928;-62
2021/03/09 06:26:59;;;;;;;;;;;1.30;99.90;;;;;;5056596;28;19925;-62
2021/03/09 06:29:25;;;;;;;;;;;1.30;99.90;;;;;;5056723;28;19925;-62
2021/03/09 06:32:01;;;;;;;;;;;1.30;99.90;;;;;;5056604;28;19925;-62
2021/03/09 06:34:27;;;;;;;;;;;1.40;99.90;;;;;;5056470;28;19925;-62
2021/03/09 06:37:04;;;;;;;;;;;1.40;99.90;;;;;;5056408;28;19932;-63
2021/03/09 06:39:50;;;;;;;;;;;1.30;99.90;;;;;;5056938;28;19925;-64
2021/03/09 06:42:18;;;;;;;;;;;1.30;99.90;;;;;;5056055;28;19937;-63
2021/03/09 06:44:48;;;;;;;;;;;1.40;99.90;;;;;;5056082;28;20291;-64
2021/03/09 06:47:14;;;;;;;;;;;1.40;99.90;;;;;;5056124;28;19932;-63
2021/03/09 06:49:50;;;;;;;;;;;1.50;99.90;;;;;;5056003;28;19928;-64
2021/03/09 06:52:16;;;;;;;;;;;1.50;99.90;;;;;;5055967;28;20020;-62
2021/03/09 06:54:43;;;;;;;;;;;1.50;99.90;;;;;;5056024;28;19937;-65
2021/03/09 06:57:09;;;;;;;;;;;1.60;99.90;;;;;;5055981;28;20383;-63
2021/03/09 06:59:36;;;;;;;;;;;1.60;99.90;;;;;;5055782;28;19975;-64
2021/03/09 07:02:04;;;;;;;;;;;1.80;99.90;;;;;;5055975;28;20030;-63
2021/03/09 07:04:30;;;;;;;;;;;1.80;99.90;;;;;;5055871;28;19978;-64
2021/03/09 07:06:57;;;;;;;;;;;1.90;99.90;;;;;;5055506;28;19925;-63
2021/03/09 07:09:23;;;;;;;;;;;1.90;99.90;;;;;;5055265;28;20371;-64
2021/03/09 07:11:49;;;;;;;;;;;2.00;99.90;;;;;;5055374;28;20433;-64
2021/03/09 07:14:16;;;;;;;;;;;1.80;99.90;;;;;;5056172;28;19925;-62
2021/03/09 07:16:47;;;;;;;;;;;2.20;99.90;;;;;;5056165;28;19925;-64
2021/03/09 07:19:13;;;;;;;;;;;2.80;99.90;;;;;;5055310;28;19947;-63
2021/03/09 07:21:41;;;;;;;;;;;3.40;99.90;;;;;;5055430;28;19925;-63
2021/03/09 07:24:08;;;;;;;;;;;3.70;99.90;;;;;;5055488;28;19932;-63
2021/03/09 07:26:36;;;;;;;;;;;4.20;99.90;;;;;;5055129;28;20374;-63
2021/03/09 07:29:04;;;;;;;;;;;4.30;99.90;;;;;;5055051;28;19928;-61
2021/03/09 07:31:32;;;;;;;;;;;4.60;99.90;;;;;;5055276;28;19925;-61
2021/03/09 07:34:00;;;;;;;;;;;4.80;99.90;;;;;;5055032;28;20314;-63
2021/03/09 07:36:27;;;;;;;;;;;5.20;99.90;;;;;;5055193;28;19959;-62
2021/03/09 07:38:53;;;;;;;;;;;5.50;99.90;;;;;;5055192;28;19932;-62
2021/03/09 07:41:19;;;;;;;;;;;5.60;99.90;;;;;;5054890;28;20326;-63
2021/03/09 07:43:45;;;;;;;;;;;5.40;99.90;;;;;;5054923;28;19925;-63
2021/03/09 07:46:12;;;;;;;;;;;5.40;99.90;;;;;;5054581;28;20425;-63
2021/03/09 07:48:38;;;;;;;;;;;5.40;99.90;;;;;;5055017;28;20299;-63
2021/03/09 07:51:05;;;;;;;;;;;5.50;99.90;;;;;;5054920;28;19925;-63
2021/03/09 07:53:31;;;;;;;;;;;5.30;99.90;;;;;;5054749;28;19928;-64
2021/03/09 07:56:12;;;;;;;;;;;5.30;99.90;;;;;;5054748;28;19924;-63
2021/03/09 07:58:38;;;;;;;;;;;5.30;99.90;;;;;;5054720;28;19924;-64
2021/03/09 08:01:05;;;;;;;;;;;5.30;99.90;;;;;;5054432;28;20413;-63
2021/03/09 08:03:31;;;;;;;;;;;5.00;99.90;;;;;;5054635;28;19929;-64
2021/03/09 08:05:58;;;;;;;;;;;5.00;99.90;;;;;;5054453;28;20330;-63
2021/03/09 08:08:41;;;;;;;;;;;4.80;99.90;;;;;;5054524;28;19924;-63
2021/03/09 08:11:09;;;;;;;;;;;4.60;99.90;;;;;;5054219;28;19932;-63
2021/03/09 08:13:35;;;;;;;;;;;4.70;99.90;;;;;;5054082;28;19982;-63
2021/03/09 08:16:31;;;;;;;;;;;4.60;99.90;;;;;;5054425;28;19924;-63
2021/03/09 08:19:07;;;;;;;;;;;4.60;99.90;;;;;;5053908;28;20021;-63
2021/03/09 08:21:50;;;;;;;;;;;4.70;99.90;;;;;;5054400;28;19925;-63
2021/03/09 08:24:18;;;;;;;;;;;4.50;99.90;;;;;;5054542;28;20291;-63
2021/03/09 08:26:46;;;;;;;;;;;4.50;99.90;;;;;;5054239;28;19925;-63
2021/03/09 08:29:31;;;;;;;;;;;4.60;99.90;;;;;;5054162;28;19929;-63
2021/03/09 08:32:12;;;;;;;;;;;4.70;99.90;;;;;;5053966;28;19925;-64
2021/03/09 08:34:38;;;;;;;;;;;4.90;99.90;;;;;;5053755;28;19925;-62
2021/03/09 08:37:28;;;;;;;;;;;5.00;99.90;;;;;;5053967;28;19931;-62
2021/03/09 08:40:04;;;;;;;;;;;5.40;99.90;;;;;;5053690;28;19928;-63
2021/03/09 08:42:51;;;;;;;;;;;5.80;99.90;;;;;;5053987;28;20303;-63
2021/03/09 08:45:33;;;;;;;;;;;6.10;99.90;;;;;;5053371;28;19925;-64
2021/03/09 08:47:59;;;;;;;;;;;6.30;99.90;;;;;;5053879;28;20294;-62
2021/03/09 08:50:38;;;;;;;;;;;6.50;99.90;;;;;;5053800;28;19932;-62
2021/03/09 08:53:05;;;;;;;;;;;6.90;99.90;;;;;;5053918;28;19925;-62
2021/03/09 08:55:32;;;;;;;;;;;6.70;99.90;;;;;;5053911;28;19925;-63
2021/03/09 08:58:05;;;;;;;;;;;6.70;99.90;;;;;;5053782;28;19924;-62
2021/03/09 09:00:31;;;;;;;;;;;6.80;99.90;;;;;;5053478;28;19943;-63
2021/03/09 09:02:57;;;;;;;;;;;6.80;99.90;;;;;;5053701;28;19933;-63
2021/03/09 09:05:28;;;;;;;;;;;6.80;99.90;;;;;;5053469;28;19932;-63
2021/03/09 09:07:54;;;;;;;;;;;6.90;99.90;;;;;;5053447;28;20370;-63
2021/03/09 09:10:22;;;;;;;;;;;7.20;99.90;;;;;;5053035;28;19925;-62
2021/03/09 09:12:49;;;;;;;;;;;7.10;99.90;;;;;;5054082;28;19925;-62
2021/03/09 09:15:17;;;;;;;;;;;7.30;99.90;;;;;;5053416;28;20375;-62
2021/03/09 09:17:45;;;;;;;;;;;7.20;99.90;;;;;;5054175;28;19931;-63
2021/03/09 09:20:13;;;;;;;;;;;7.30;99.90;;;;;;5053284;28;20406;-62
2021/03/09 09:22:39;;;;;;;;;;;7.60;99.90;;;;;;5053193;28;19925;-64
2021/03/09 09:25:06;;;;;;;;;;;7.40;99.90;;;;;;5053153;28;19971;-63
2021/03/09 09:27:43;;;;;;;;;;;7.60;99.90;;;;;;5053943;28;19935;-63
2021/03/09 09:30:11;;;;;;;;;;;7.80;99.90;;;;;;5053073;28;19929;-63
2021/03/09 09:32:44;;;;;;;;;;;7.90;99.90;;;;;;5057192;28;19978;-62
2021/03/09 09:35:11;;;;;;;;;;;8.20;99.90;;;;;;5057197;28;19971;-63
2021/03/09 09:37:43;;;;;;;;;;;7.90;99.90;;;;;;5057791;28;19948;-62
2021/03/09 09:40:10;;;;;;;;;;;8.20;99.90;;;;;;5056998;28;19925;-62
2021/03/09 09:42:36;;;;;;;;;;;8.60;99.90;;;;;;5056968;28;19925;-63
2021/03/09 09:45:03;;;;;;;;;;;8.80;99.90;;;;;;5057115;28;19929;-65
2021/03/09 09:47:30;;;;;;;;;;;8.80;99.90;;;;;;5057543;28;20422;-63
2021/03/09 09:49:56;;;;;;;;;;;9.00;99.90;;;;;;5056762;28;20306;-62
2021/03/09 09:52:22;;;;;;;;;;;9.20;99.90;;;;;;5056791;28;20414;-63
2021/03/09 09:54:52;;;;;;;;;;;9.20;99.90;;;;;;5058284;28;19925;-63
2021/03/09 09:57:18;;;;;;;;;;;9.30;99.90;;;;;;5057051;28;20024;-62
2021/03/09 09:59:44;;;;;;;;;;;9.50;99.90;;;;;;5056852;28;19990;-62
2021/03/09 10:02:17;;;;;;;;;;;9.40;99.90;;;;;;5056537;28;19924;-65
2021/03/09 10:04:44;;;;;;;;;;;9.30;99.90;;;;;;5056573;28;19932;-62
2021/03/09 10:07:14;;;;;;;;;;;9.20;99.90;;;;;;5056723;28;19975;-63
2021/03/09 10:09:40;;;;;;;;;;;9.40;99.90;;;;;;5056862;28;19964;-63
2021/03/09 10:12:07;;;;;;;;;;;9.50;99.90;;;;;;5056376;28;19925;-62
2021/03/09 10:14:33;;;;;;;;;;;9.40;99.90;;;;;;5056197;28;19928;-62
2021/03/09 10:16:59;;;;;;;;;;;9.40;99.90;;;;;;5056449;28;19998;-62
2021/03/09 10:19:34;;;;;;;;;;;9.40;99.90;;;;;;5056306;28;20030;-62
2021/03/09 10:22:01;;;;;;;;;;;9.10;99.90;;;;;;5056415;28;20265;-64
2021/03/09 10:24:30;;;;;;;;;;;9.30;99.90;;;;;;5056535;28;19929;-63
2021/03/09 10:26:57;;;;;;;;;;;9.30;99.90;;;;;;5056407;28;19924;-63
2021/03/09 10:29:24;;;;;;;;;;;9.10;99.90;;;;;;5056267;28;19925;-63
2021/03/09 10:31:51;;;;;;;;;;;9.30;99.90;;;;;;5055912;28;19928;-63
2021/03/09 10:34:18;;;;;;;;;;;9.50;99.90;;;;;;5056320;28;19927;-65
2021/03/09 10:36:48;;;;;;;;;;;9.60;99.90;;;;;;5056306;28;19925;-63
2021/03/09 10:39:14;;;;;;;;;;;9.50;99.90;;;;;;5055798;28;19932;-63
2021/03/09 10:41:41;;;;;;;;;;;9.50;99.90;;;;;;5056067;28;19931;-63
2021/03/09 10:44:07;;;;;;;;;;;9.30;99.90;;;;;;5055670;28;19932;-64
2021/03/09 10:46:34;;;;;;;;;;;9.40;99.90;;;;;;5056176;28;19929;-64
2021/03/09 10:49:00;;;;;;;;;;;9.70;99.90;;;;;;5056368;28;19925;-63
2021/03/09 10:51:26;;;;;;;;;;;10.00;99.90;;;;;;5055833;28;20325;-64
2021/03/09 10:53:52;;;;;;;;;;;9.90;99.90;;;;;;5056141;28;19928;-64
2021/03/09 10:56:19;;;;;;;;;;;10.10;99.90;;;;;;5056064;28;19928;-64
2021/03/09 10:58:45;;;;;;;;;;;10.30;98.80;;;;;;5056052;28;19947;-63
2021/03/09 11:01:12;;;;;;;;;;;10.50;97.40;;;;;;5055978;28;20371;-63
2021/03/09 11:03:38;;;;;;;;;;;10.60;96.50;;;;;;5056037;28;19928;-63
2021/03/09 11:06:04;;;;;;;;;;;10.50;97.00;;;;;;5056024;28;19932;-63
2021/03/09 11:08:30;;;;;;;;;;;10.70;96.10;;;;;;5057164;28;19932;-63
2021/03/09 11:10:56;;;;;;;;;;;10.70;96.90;;;;;;5068133;28;19925;-62
2021/03/09 11:13:23;;;;;;;;;;;10.60;96.00;;;;;;5072189;28;19939;-62
2021/03/09 11:15:49;;;;;;;;;;;10.80;94.80;;;;;;5069497;28;19928;-61
2021/03/09 11:18:15;;;;;;;;;;;10.80;94.00;;;;;;5058935;28;19948;-61
2021/03/09 11:20:41;;;;;;;;;;;10.90;94.80;;;;;;5057016;28;20342;-61
2021/03/09 11:23:08;;;;;;;;;;;10.80;93.30;;;;;;5055907;28;19925;-62
2021/03/09 11:25:36;;;;;;;;;;;11.00;94.80;;;;;;5055444;28;19925;-61
2021/03/09 11:28:02;;;;;;;;;;;11.00;92.50;;;;;;5055771;28;19924;-62
2021/03/09 11:30:29;;;;;;;;;;;10.90;93.40;;;;;;5054971;28;20371;-61
2021/03/09 11:32:55;;;;;;;;;;;11.00;94.50;;;;;;5055354;28;19925;-62
2021/03/09 11:35:21;;;;;;;;;;;11.10;93.40;;;;;;5055388;28;19924;-62
2021/03/09 11:37:47;;;;;;;;;;;11.10;93.20;;;;;;5055246;28;19928;-62
2021/03/09 11:40:14;;;;;;;;;;;11.40;91.00;;;;;;5055157;28;19929;-62
2021/03/09 11:42:40;;;;;;;;;;;11.30;87.70;;;;;;5056370;28;19936;-62
2021/03/09 11:45:06;;;;;;;;;;;11.10;89.70;;;;;;5055132;28;20042;-62
2021/03/09 11:47:33;;;;;;;;;;;10.80;92.50;;;;;;5055461;28;19929;-62
2021/03/09 11:49:59;;;;;;;;;;;10.90;94.30;;;;;;5054866;28;19931;-61
2021/03/09 11:52:25;;;;;;;;;;;11.00;94.80;;;;;;5055047;28;19929;-62
2021/03/09 11:54:52;;;;;;;;;;;11.20;94.20;;;;;;5054818;28;19925;-63
2021/03/09 11:57:19;;;;;;;;;;;11.10;94.30;;;;;;5055483;28;20012;-61
2021/03/09 11:59:45;;;;;;;;;;;11.20;94.00;;;;;;5054620;28;19925;-62
2021/03/09 12:02:11;;;;;;;;;;;11.40;92.20;;;;;;5054646;28;19924;-61
2021/03/09 12:04:40;;;;;;;;;;;11.40;92.80;;;;;;5054244;28;20398;-61
2021/03/09 12:07:06;;;;;;;;;;;11.20;93.50;;;;;;5054193;28;20342;-61
2021/03/09 12:09:32;;;;;;;;;;;10.90;93.70;;;;;;5054451;28;19924;-61
2021/03/09 12:11:58;;;;;;;;;;;10.70;93.40;;;;;;5054257;28;19928;-63
2021/03/09 12:14:24;;;;;;;;;;;10.70;94.10;;;;;;5054229;28;19996;-62
2021/03/09 12:16:50;;;;;;;;;;;10.80;93.10;;;;;;5054344;28;20027;-62
2021/03/09 12:19:16;;;;;;;;;;;10.90;94.50;;;;;;5054465;28;20283;-62
2021/03/09 12:21:43;;;;;;;;;;;11.20;93.90;;;;;;5055373;28;19925;-62
2021/03/09 12:24:09;;;;;;;;;;;11.20;94.30;;;;;;5054453;28;19925;-62
2021/03/09 12:26:35;;;;;;;;;;;11.30;93.30;;;;;;5054476;28;19932;-62
2021/03/09 12:29:01;;;;;;;;;;;11.50;93.70;;;;;;5054433;28;19925;-62
2021/03/09 12:31:28;;;;;;;;;;;11.70;92.60;;;;;;5054477;28;19924;-61
2021/03/09 12:33:54;;;;;;;;;;;11.50;90.80;;;;;;5054397;28;19925;-61
2021/03/09 12:36:20;;;;;;;;;;;11.10;91.90;;;;;;5054552;28;19925;-62
2021/03/09 12:38:47;;;;;;;;;;;11.20;91.80;;;;;;5054484;28;19948;-62
2021/03/09 12:41:13;;;;;;;;;;;11.00;92.90;;;;;;5054297;28;19958;-62
2021/03/09 12:43:39;;;;;;;;;;;11.00;92.60;;;;;;5054416;28;19924;-62
2021/03/09 12:46:05;;;;;;;;;;;11.10;92.70;;;;;;5054211;28;19929;-62
2021/03/09 12:48:31;;;;;;;;;;;11.00;92.10;;;;;;5054166;28;19925;-62
2021/03/09 12:50:57;;;;;;;;;;;11.00;90.40;;;;;;5054368;28;19924;-62
2021/03/09 12:53:23;;;;;;;;;;;10.80;88.70;;;;;;5053775;28;19929;-62
2021/03/09 12:55:50;;;;;;;;;;;10.90;91.10;;;;;;5053545;28;20379;-62
2021/03/09 12:58:16;;;;;;;;;;;11.00;89.00;;;;;;5054091;28;20383;-62
2021/03/09 13:00:42;;;;;;;;;;;10.70;90.20;;;;;;5055697;28;19928;-62
2021/03/09 13:03:08;;;;;;;;;;;11.00;91.50;;;;;;5054126;28;20264;-62
2021/03/09 13:05:34;;;;;;;;;;;11.10;86.70;;;;;;5053240;28;19925;-62
2021/03/09 13:08:00;;;;;;;;;;;11.10;86.10;;;;;;5054490;28;19932;-62
2021/03/09 13:10:26;;;;;;;;;;;11.30;88.50;;;;;;5053604;28;20272;-62
2021/03/09 13:12:53;;;;;;;;;;;11.10;85.00;;;;;;5053915;28;19978;-62
2021/03/09 13:15:19;;;;;;;;;;;11.10;89.40;;;;;;5054205;28;19932;-62
2021/03/09 13:17:45;;;;;;;;;;;11.30;83.30;;;;;;5056175;28;19932;-62
2021/03/09 13:20:12;;;;;;;;;;;11.30;83.50;;;;;;5060665;28;19925;-62
2021/03/09 13:22:38;;;;;;;;;;;11.30;83.40;;;;;;5055908;28;19950;-62
2021/03/09 13:25:05;;;;;;;;;;;11.40;83.70;;;;;;5064452;28;19932;-62
2021/03/09 13:27:31;;;;;;;;;;;11.30;81.70;;;;;;5059264;28;19932;-62
2021/03/09 13:29:58;;;;;;;;;;;11.60;83.40;;;;;;5053775;28;19925;-62
2021/03/09 13:32:24;;;;;;;;;;;11.60;86.70;;;;;;5053723;28;19948;-62
2021/03/09 13:34:50;;;;;;;;;;;11.70;84.50;;;;;;5053697;28;19928;-62
2021/03/09 13:37:18;;;;;;;;;;;11.70;81.10;;;;;;5053623;28;19925;-61
2021/03/09 13:39:44;;;;;;;;;;;11.30;79.90;;;;;;5053390;28;19986;-62
2021/03/09 13:42:10;;;;;;;;;;;11.10;83.10;;;;;;5053438;28;20283;-62
2021/03/09 13:44:36;;;;;;;;;;;11.30;80.20;;;;;;5053444;28;19925;-62
2021/03/09 13:47:03;;;;;;;;;;;11.20;82.60;;;;;;5053490;28;19929;-62
2021/03/09 13:49:29;;;;;;;;;;;11.20;79.80;;;;;;5053380;28;19928;-62
2021/03/09 13:51:55;;;;;;;;;;;11.10;81.50;;;;;;5053311;28;19925;-62
2021/03/09 13:54:21;;;;;;;;;;;11.20;85.10;;;;;;5053407;28;19925;-62
2021/03/09 13:56:47;;;;;;;;;;;11.20;85.40;;;;;;5052914;28;20387;-61
2021/03/09 13:59:13;;;;;;;;;;;11.20;84.80;;;;;;5053413;28;20294;-60
2021/03/09 14:01:40;;;;;;;;;;;11.10;83.20;;;;;;5053151;28;20360;-63
2021/03/09 14:04:07;;;;;;;;;;;11.20;83.20;;;;;;5052913;28;20390;-60
2021/03/09 14:06:33;;;;;;;;;;;11.20;84.50;;;;;;5053065;28;19933;-62
2021/03/09 14:08:59;;;;;;;;;;;11.20;82.60;;;;;;5053106;28;19932;-62
2021/03/09 14:11:25;;;;;;;;;;;11.10;82.60;;;;;;5052645;28;19925;-62
2021/03/09 14:13:51;;;;;;;;;;;10.90;83.20;;;;;;5052989;28;19924;-62
2021/03/09 14:16:17;;;;;;;;;;;10.90;84.00;;;;;;5052902;28;19925;-62
2021/03/09 14:18:44;;;;;;;;;;;10.80;81.80;;;;;;5055076;28;19924;-62
2021/03/09 14:21:11;;;;;;;;;;;10.70;83.10;;;;;;5056049;28;20359;-62
2021/03/09 14:23:37;;;;;;;;;;;10.60;84.10;;;;;;5056254;28;19948;-62
2021/03/09 14:26:03;;;;;;;;;;;10.40;84.20;;;;;;5056066;28;19935;-62
2021/03/09 14:28:29;;;;;;;;;;;10.40;84.10;;;;;;5056164;28;19929;-62
2021/03/09 14:30:55;;;;;;;;;;;10.40;82.20;;;;;;5056640;28;19924;-62
2021/03/09 14:33:21;;;;;;;;;;;10.20;83.70;;;;;;5057025;28;19924;-61
2021/03/09 14:35:47;;;;;;;;;;;10.10;83.20;;;;;;5056931;28;19925;-61
2021/03/09 14:38:14;;;;;;;;;;;10.00;84.90;;;;;;5056564;28;19925;-62
2021/03/09 14:40:41;;;;;;;;;;;10.00;85.60;;;;;;5056382;28;19971;-63
2021/03/09 14:43:07;;;;;;;;;;;10.00;86.60;;;;;;5056263;28;19932;-63
2021/03/09 14:45:33;;;;;;;;;;;10.00;88.10;;;;;;5056105;28;19928;-62
2021/03/09 14:47:59;;;;;;;;;;;9.90;88.30;;;;;;5056171;28;19924;-61
2021/03/09 14:50:26;;;;;;;;;;;9.80;87.30;;;;;;5056007;28;19991;-61
2021/03/09 14:52:52;;;;;;;;;;;9.70;86.80;;;;;;5056135;28;20039;-61
2021/03/09 14:55:19;;;;;;;;;;;9.60;88.30;;;;;;5056025;28;19925;-61
2021/03/09 14:57:45;;;;;;;;;;;9.70;89.60;;;;;;5056099;28;19948;-62
2021/03/09 15:00:12;;;;;;;;;;;9.50;89.40;;;;;;5055983;28;19933;-61
2021/03/09 15:02:38;;;;;;;;;;;9.60;89.40;;;;;;5056330;28;19940;-62
2021/03/09 15:05:06;;;;;;;;;;;9.50;89.50;;;;;;5055860;28;20011;-61
2021/03/09 15:07:32;;;;;;;;;;;9.60;88.90;;;;;;5055926;28;20273;-62
2021/03/09 15:09:58;;;;;;;;;;;9.70;89.80;;;;;;5055832;28;20298;-62
2021/03/09 15:12:25;;;;;;;;;;;9.70;89.90;;;;;;5055334;28;19925;-62
2021/03/09 15:14:51;;;;;;;;;;;9.70;88.70;;;;;;5055455;28;19958;-61
2021/03/09 15:17:17;;;;;;;;;;;9.50;89.20;;;;;;5055674;28;19925;-61
2021/03/09 15:19:44;;;;;;;;;;;9.50;89.60;;;;;;5054786;28;21486;-62
2021/03/09 15:22:10;;;;;;;;;;;9.50;89.70;;;;;;5055437;28;19925;-61
2021/03/09 15:24:36;;;;;;;;;;;9.50;89.80;;;;;;5056342;28;19925;-60
2021/03/09 15:27:03;;;;;;;;;;;9.40;90.00;;;;;;5057297;28;19947;-60
2021/03/09 15:29:29;;;;;;;;;;;9.40;90.30;;;;;;5057098;28;19924;-60
2021/03/09 15:31:55;;;;;;;;;;;9.20;91.10;;;;;;5057058;28;19929;-60
2021/03/09 15:34:22;;;;;;;;;;;9.10;91.00;;;;;;5056635;28;19925;-61
2021/03/09 15:36:48;;;;;;;;;;;9.20;91.50;;;;;;5056948;28;19932;-61
2021/03/09 15:39:14;;;;;;;;;;;9.20;91.20;;;;;;5056382;28;19925;-61
2021/03/09 15:41:40;;;;;;;;;;;9.30;92.20;;;;;;5055560;28;19925;-61
2021/03/09 15:44:06;;;;;;;;;;;9.50;92.70;;;;;;5055784;28;19932;-61
2021/03/09 15:46:33;;;;;;;;;;;9.50;91.80;;;;;;5055332;28;20419;-60
2021/03/09 15:48:59;;;;;;;;;;;9.50;91.80;;;;;;5056446;28;19925;-60
2021/03/09 15:51:25;;;;;;;;;;;9.60;91.60;;;;;;5055683;28;19924;-60
2021/03/09 15:53:51;;;;;;;;;;;9.70;91.40;;;;;;5054976;28;20020;-60
2021/03/09 15:56:17;;;;;;;;;;;9.70;91.80;;;;;;5055244;28;19980;-60
2021/03/09 15:58:43;;;;;;;;;;;9.60;91.60;;;;;;5054992;28;19929;-60
2021/03/09 16:01:10;;;;;;;;;;;9.60;92.30;;;;;;5054447;28;19929;-60
2021/03/09 16:03:36;;;;;;;;;;;9.50;91.80;;;;;;5054640;28;19925;-60
2021/03/09 16:06:03;;;;;;;;;;;9.40;91.80;;;;;;5054376;28;19929;-59
2021/03/09 16:08:29;;;;;;;;;;;9.30;91.80;;;;;;5054522;28;19924;-60
2021/03/09 16:10:55;;;;;;;;;;;9.30;92.40;;;;;;5054496;28;19932;-62
2021/03/09 16:13:21;;;;;;;;;;;9.40;92.50;;;;;;5054394;28;19932;-62
2021/03/09 16:15:47;;;;;;;;;;;9.40;92.60;;;;;;5054370;28;19925;-62
2021/03/09 16:18:14;;;;;;;;;;;9.20;92.50;;;;;;5054306;28;19948;-62
2021/03/09 16:20:41;;;;;;;;;;;9.20;92.50;;;;;;5054549;28;19925;-62
2021/03/09 16:23:07;;;;;;;;;;;9.00;91.90;;;;;;5054484;28;20355;-62
2021/03/09 16:25:33;;;;;;;;;;;8.90;92.40;;;;;;5054230;28;19929;-63
2021/03/09 16:27:59;;;;;;;;;;;8.90;93.00;;;;;;5054331;28;19924;-62
2021/03/09 16:30:27;;;;;;;;;;;8.80;92.50;;;;;;5054224;28;19991;-62
2021/03/09 16:32:53;;;;;;;;;;;8.90;93.30;;;;;;5054209;28;19952;-61
2021/03/09 16:35:19;;;;;;;;;;;8.80;93.40;;;;;;5053818;28;19924;-62
2021/03/09 16:37:46;;;;;;;;;;;8.80;93.20;;;;;;5053937;28;19929;-62
2021/03/09 16:40:13;;;;;;;;;;;8.80;93.20;;;;;;5053082;28;19925;-62
2021/03/09 16:42:39;;;;;;;;;;;8.80;93.50;;;;;;5053979;28;19931;-62
2021/03/09 16:45:06;;;;;;;;;;;8.80;92.80;;;;;;5053482;28;20264;-62
2021/03/09 16:47:32;;;;;;;;;;;8.80;93.10;;;;;;5053351;28;19925;-62
2021/03/09 16:49:58;;;;;;;;;;;8.60;93.10;;;;;;5053772;28;19924;-61
2021/03/09 16:52:24;;;;;;;;;;;8.60;93.30;;;;;;5053628;28;20283;-61
2021/03/09 16:54:52;;;;;;;;;;;8.60;93.70;;;;;;5053690;28;19931;-63
2021/03/09 16:57:18;;;;;;;;;;;8.60;93.40;;;;;;5053682;28;19925;-62
2021/03/09 16:59:44;;;;;;;;;;;8.70;93.20;;;;;;5053840;28;20268;-62
2021/03/09 17:02:10;;;;;;;;;;;8.70;93.40;;;;;;5053269;28;19929;-62
2021/03/09 17:04:36;;;;;;;;;;;8.70;93.40;;;;;;5053684;28;19944;-63
2021/03/09 17:07:02;;;;;;;;;;;8.70;93.60;;;;;;5053804;28;19932;-62
2021/03/09 17:09:29;;;;;;;;;;;8.70;93.70;;;;;;5053651;28;19925;-62
2021/03/09 17:11:55;;;;;;;;;;;8.80;94.10;;;;;;5053563;28;20359;-62
2021/03/09 17:14:22;;;;;;;;;;;8.80;93.50;;;;;;5053583;28;19925;-63
2021/03/09 17:16:48;;;;;;;;;;;8.70;93.80;;;;;;5053974;28;19932;-62
2021/03/09 17:19:14;;;;;;;;;;;8.70;93.60;;;;;;5053837;28;19975;-62
2021/03/09 17:21:40;;;;;;;;;;;8.60;94.10;;;;;;5053856;28;19932;-62
2021/03/09 17:24:06;;;;;;;;;;;8.60;94.10;;;;;;5054045;28;19931;-62
2021/03/09 17:26:32;;;;;;;;;;;8.50;94.70;;;;;;5053620;28;19929;-62
2021/03/09 17:28:59;;;;;;;;;;;8.50;94.30;;;;;;5053564;28;19925;-62
2021/03/09 17:31:26;;;;;;;;;;;8.50;94.80;;;;;;5053515;28;19924;-62
2021/03/09 17:33:52;;;;;;;;;;;8.40;94.80;;;;;;5053837;28;19925;-62
2021/03/09 17:36:18;;;;;;;;;;;8.50;94.80;;;;;;5054004;28;20285;-63
2021/03/09 17:38:44;;;;;;;;;;;8.50;94.90;;;;;;5054372;28;19964;-62
2021/03/09 17:41:10;;;;;;;;;;;8.50;94.50;;;;;;5053846;28;19971;-62
2021/03/09 17:43:36;;;;;;;;;;;8.50;94.70;;;;;;5053740;28;19925;-63
2021/03/09 17:46:04;;;;;;;;;;;8.50;94.50;;;;;;5052933;28;20272;-63
2021/03/09 17:48:30;;;;;;;;;;;8.50;95.20;;;;;;5052936;28;19932;-63
2021/03/09 17:50:56;;;;;;;;;;;8.50;95.20;;;;;;5053022;28;19925;-64
2021/03/09 17:53:22;;;;;;;;;;;8.50;94.20;;;;;;5056600;28;19971;-63
2021/03/09 17:55:48;;;;;;;;;;;8.50;94.60;;;;;;5056766;28;19986;-64
2021/03/09 17:58:14;;;;;;;;;;;8.50;98.10;;;;;;5056611;28;19925;-64
2021/03/09 18:00:40;;;;;;;;;;;8.50;97.60;;;;;;5056438;28;20322;-64
2021/03/09 18:03:07;;;;;;;;;;;8.50;99.30;;;;;;5056593;28;19932;-64
2021/03/09 18:05:38;;;;;;;;;;;8.50;97.00;;;;;;5057191;28;19929;-64
2021/03/09 18:08:04;;;;;;;;;;;8.60;96.40;;;;;;5057283;28;19947;-64
2021/03/09 18:10:30;;;;;;;;;;;8.50;96.40;;;;;;5057202;28;19929;-64
2021/03/09 18:12:56;;;;;;;;;;;8.50;96.30;;;;;;5057650;28;19924;-65
2021/03/09 18:15:26;;;;;;;;;;;8.50;95.90;;;;;;5057598;28;19925;-64
2021/03/09 18:17:53;;;;;;;;;;;8.40;94.70;;;;;;5057406;28;19932;-63
2021/03/09 18:20:19;;;;;;;;;;;8.30;95.30;;;;;;5057051;28;20444;-64
2021/03/09 18:22:47;;;;;;;;;;;8.10;95.20;;;;;;5057105;28;19948;-63
2021/03/09 18:25:14;;;;;;;;;;;8.00;96.40;;;;;;5056578;28;20022;-64
2021/03/09 18:27:40;;;;;;;;;;;8.00;97.10;;;;;;5056997;28;19931;-64
2021/03/09 18:30:07;;;;;;;;;;;8.10;97.60;;;;;;5056729;28;20000;-64
2021/03/09 18:32:33;;;;;;;;;;;8.00;97.90;;;;;;5057020;28;19979;-64
2021/03/09 18:34:59;;;;;;;;;;;8.10;98.40;;;;;;5056435;28;20295;-64
2021/03/09 18:37:26;;;;;;;;;;;8.00;97.90;;;;;;5056662;28;19955;-63
2021/03/09 18:39:52;;;;;;;;;;;7.90;97.60;;;;;;5057040;28;20311;-65
2021/03/09 18:42:18;;;;;;;;;;;7.90;98.30;;;;;;5056570;28;20360;-63
2021/03/09 18:44:44;;;;;;;;;;;7.90;98.90;;;;;;5056654;28;20277;-64
2021/03/09 18:47:10;;;;;;;;;;;8.00;98.80;;;;;;5056581;28;19925;-65
2021/03/09 18:49:36;;;;;;;;;;;7.90;98.50;;;;;;5057276;28;19932;-63
2021/03/09 18:52:02;;;;;;;;;;;7.90;99.20;;;;;;5056601;28;19947;-63
2021/03/09 18:54:29;;;;;;;;;;;7.90;99.90;;;;;;5056712;28;19932;-64
2021/03/09 18:56:55;;;;;;;;;;;7.90;99.90;;;;;;5056428;28;19925;-63
2021/03/09 18:59:21;;;;;;;;;;;7.80;99.90;;;;;;5056362;28;19948;-65
2021/03/09 19:01:47;;;;;;;;;;;7.80;99.90;;;;;;5056293;28;19925;-62
2021/03/09 19:04:13;;;;;;;;;;;7.80;99.90;;;;;;5055534;28;20294;-63
2021/03/09 19:06:39;;;;;;;;;;;7.80;99.90;;;;;;5056339;28;20002;-64
2021/03/09 19:09:05;;;;;;;;;;;7.80;99.90;;;;;;5056450;28;19929;-63
2021/03/09 19:11:32;;;;;;;;;;;7.60;99.90;;;;;;5055760;28;19925;-64
2021/03/09 19:13:58;;;;;;;;;;;7.60;99.90;;;;;;5055951;28;19931;-63
2021/03/09 19:16:24;;;;;;;;;;;7.60;99.90;;;;;;5055861;28;19985;-63
2021/03/09 19:18:51;;;;;;;;;;;7.60;99.90;;;;;;5055929;28;19924;-63
2021/03/09 19:21:17;;;;;;;;;;;7.50;99.90;;;;;;5055807;28;19925;-63
2021/03/09 19:23:43;;;;;;;;;;;7.50;99.90;;;;;;5056145;28;19929;-63
2021/03/09 19:26:09;;;;;;;;;;;7.50;99.90;;;;;;5055937;28;20379;-63